Huvudsida
METAR-TAF:

METAR-TAF

Flygplatser :

London-Heathrow, England

London-Heathrow flygplats

latitud: 51-29N, longitud: 000-27W, höjd: 24 m

Aktuellt väderrapport

Denna rapport gjordes för 27 minuter sedan, klockan 04:20 UTC
Vind 1 kt varierande vindriktning
Temperatur -1°C
Fuktighet 86%
Tryck 1022 hPa
Sikt: 8000 m

METAR: EGLL 230420Z AUTO VRB01KT 8000 NCD M01/M03 Q1022 NOSIG

Tid: 04:47 (04:47 UTC)

Väderprognos

Denna rapport gjordes för 5 timmar och 55 minuter sedan, klockan 22:52 UTC
Prognos gäller från 23 kl. 00 UTC till 24 kl. 06 UTC
Vind 6 kt från ost/nordost
Sikt 10 km eller mer
Spridda moln på en höjd av 3000 ft
Temporärt
från 23 kl. 00 UTC till 23 kl. 08 UTC
Sikt: 8000 m

TAF: EGLL 222252Z 2300/2406 06006KT 9999 SCT030 TEMPO 2300/2308 8000

Aktuella väderrapporter och prognoser från 4000 flygplatser (METAR- och TAF-rapporter).

De tillgängliga stationerna syns som gula och röda prickar på kartan.

För musen över prickarna för att se namnen på stationerna.

Klicka sedan för att få väderrapporter och prognoser.

För att ändra kartan: Klicka på de gröna knapparna med ett svart kors på för att zooma in; den gröna knappen med ett streck på för att zooma ut; eller på de gröna pilarna för angränsande kartor.


METAR-TAF: